sensor_id;sensor_type;location;lat;lon;timestamp;P1;durP1;ratioP1;P2;durP2;ratioP2
31382;SDS011;18014;49.228;11.102;2023-02-28T00:00:34;6.05;;;2.92;;
31382;SDS011;18014;49.228;11.102;2023-02-28T00:02:36;5.40;;;3.47;;
31382;SDS011;18014;49.228;11.102;2023-02-28T00:04:38;6.05;;;3.72;;
31382;SDS011;18014;49.228;11.102;2023-02-28T00:06:39;4.70;;;3.00;;
31382;SDS011;18014;49.228;11.102;2023-02-28T00:08:41;6.68;;;3.55;;
31382;SDS011;18014;49.228;11.102;2023-02-28T00:10:43;5.40;;;3.35;;
31382;SDS011;18014;49.228;11.102;2023-02-28T00:12:44;6.00;;;3.40;;
31382;SDS011;18014;49.228;11.102;2023-02-28T00:14:44;5.32;;;3.40;;
31382;SDS011;18014;49.228;11.102;2023-02-28T00:16:45;7.85;;;3.58;;
31382;SDS011;18014;49.228;11.102;2023-02-28T00:18:47;6.55;;;4.15;;
31382;SDS011;18014;49.228;11.102;2023-02-28T00:20:48;6.43;;;3.60;;
31382;SDS011;18014;49.228;11.102;2023-02-28T00:22:50;4.68;;;2.97;;
31382;SDS011;18014;49.228;11.102;2023-02-28T00:24:52;4.40;;;2.88;;
31382;SDS011;18014;49.228;11.102;2023-02-28T00:26:53;5.97;;;4.35;;
31382;SDS011;18014;49.228;11.102;2023-02-28T00:28:54;10.23;;;5.38;;
31382;SDS011;18014;49.228;11.102;2023-02-28T00:30:55;7.75;;;4.55;;
31382;SDS011;18014;49.228;11.102;2023-02-28T00:32:57;6.20;;;3.92;;
31382;SDS011;18014;49.228;11.102;2023-02-28T00:34:59;5.03;;;3.33;;
31382;SDS011;18014;49.228;11.102;2023-02-28T00:37:00;5.90;;;3.67;;
31382;SDS011;18014;49.228;11.102;2023-02-28T00:39:01;6.72;;;3.30;;
31382;SDS011;18014;49.228;11.102;2023-02-28T00:41:02;6.63;;;3.95;;
31382;SDS011;18014;49.228;11.102;2023-02-28T00:43:06;5.45;;;3.75;;
31382;SDS011;18014;49.228;11.102;2023-02-28T00:45:07;5.40;;;3.65;;
31382;SDS011;18014;49.228;11.102;2023-02-28T00:47:08;8.77;;;4.50;;
31382;SDS011;18014;49.228;11.102;2023-02-28T00:49:10;20.75;;;4.43;;
31382;SDS011;18014;49.228;11.102;2023-02-28T00:51:11;7.40;;;4.72;;
31382;SDS011;18014;49.228;11.102;2023-02-28T00:53:12;5.88;;;4.22;;
31382;SDS011;18014;49.228;11.102;2023-02-28T00:55:13;5.75;;;4.07;;
31382;SDS011;18014;49.228;11.102;2023-02-28T00:57:14;7.05;;;4.15;;
31382;SDS011;18014;49.228;11.102;2023-02-28T00:59:15;6.63;;;3.08;;
31382;SDS011;18014;49.228;11.102;2023-02-28T01:01:17;5.40;;;4.05;;
31382;SDS011;18014;49.228;11.102;2023-02-28T01:03:18;4.55;;;3.35;;
31382;SDS011;18014;49.228;11.102;2023-02-28T01:05:20;6.93;;;4.28;;
31382;SDS011;18014;49.228;11.102;2023-02-28T01:07:21;8.57;;;4.72;;
31382;SDS011;18014;49.228;11.102;2023-02-28T01:09:22;7.03;;;3.97;;
31382;SDS011;18014;49.228;11.102;2023-02-28T01:11:23;6.22;;;4.30;;
31382;SDS011;18014;49.228;11.102;2023-02-28T01:13:24;5.15;;;3.70;;
31382;SDS011;18014;49.228;11.102;2023-02-28T01:15:25;6.60;;;4.55;;
31382;SDS011;18014;49.228;11.102;2023-02-28T01:17:26;6.72;;;3.60;;
31382;SDS011;18014;49.228;11.102;2023-02-28T01:19:27;4.60;;;3.10;;
31382;SDS011;18014;49.228;11.102;2023-02-28T01:21:28;7.45;;;3.90;;
31382;SDS011;18014;49.228;11.102;2023-02-28T01:23:30;6.00;;;3.45;;
31382;SDS011;18014;49.228;11.102;2023-02-28T01:25:33;6.38;;;4.18;;
31382;SDS011;18014;49.228;11.102;2023-02-28T01:27:35;7.25;;;4.05;;
31382;SDS011;18014;49.228;11.102;2023-02-28T01:29:36;4.93;;;3.53;;
31382;SDS011;18014;49.228;11.102;2023-02-28T01:31:37;6.75;;;4.15;;
31382;SDS011;18014;49.228;11.102;2023-02-28T01:33:38;8.18;;;4.43;;
31382;SDS011;18014;49.228;11.102;2023-02-28T01:35:39;5.60;;;3.90;;
31382;SDS011;18014;49.228;11.102;2023-02-28T01:37:40;5.68;;;3.80;;
31382;SDS011;18014;49.228;11.102;2023-02-28T01:39:41;5.90;;;3.92;;
31382;SDS011;18014;49.228;11.102;2023-02-28T01:41:42;6.88;;;4.18;;
31382;SDS011;18014;49.228;11.102;2023-02-28T01:45:44;7.95;;;4.03;;
31382;SDS011;18014;49.228;11.102;2023-02-28T01:47:45;7.15;;;4.13;;
31382;SDS011;18014;49.228;11.102;2023-02-28T01:49:50;6.82;;;4.22;;
31382;SDS011;18014;49.228;11.102;2023-02-28T01:51:52;7.72;;;3.88;;
31382;SDS011;18014;49.228;11.102;2023-02-28T01:53:56;6.78;;;4.15;;
31382;SDS011;18014;49.228;11.102;2023-02-28T01:56:00;7.20;;;4.28;;
31382;SDS011;18014;49.228;11.102;2023-02-28T01:58:04;6.25;;;4.55;;
31382;SDS011;18014;49.228;11.102;2023-02-28T02:00:08;6.78;;;4.45;;
31382;SDS011;18014;49.228;11.102;2023-02-28T02:02:13;6.55;;;4.15;;
31382;SDS011;18014;49.228;11.102;2023-02-28T02:04:15;7.55;;;5.22;;
31382;SDS011;18014;49.228;11.102;2023-02-28T02:06:16;7.30;;;4.13;;
31382;SDS011;18014;49.228;11.102;2023-02-28T02:08:19;9.45;;;5.20;;
31382;SDS011;18014;49.228;11.102;2023-02-28T02:10:31;9.10;;;4.82;;
31382;SDS011;18014;49.228;11.102;2023-02-28T02:14:54;7.72;;;4.72;;
31382;SDS011;18014;49.228;11.102;2023-02-28T02:17:09;8.50;;;5.28;;
31382;SDS011;18014;49.228;11.102;2023-02-28T02:33:04;11.05;;;6.00;;
31382;SDS011;18014;49.228;11.102;2023-02-28T02:40:24;7.47;;;5.53;;
31382;SDS011;18014;49.228;11.102;2023-02-28T02:45:07;7.63;;;5.25;;
31382;SDS011;18014;49.228;11.102;2023-02-28T02:47:26;9.43;;;5.25;;
31382;SDS011;18014;49.228;11.102;2023-02-28T02:49:31;8.57;;;5.25;;
31382;SDS011;18014;49.228;11.102;2023-02-28T02:53:36;7.88;;;4.53;;
31382;SDS011;18014;49.228;11.102;2023-02-28T02:55:43;6.88;;;4.40;;
31382;SDS011;18014;49.228;11.102;2023-02-28T02:57:48;9.18;;;5.38;;
31382;SDS011;18014;49.228;11.102;2023-02-28T03:00:00;8.68;;;5.15;;
31382;SDS011;18014;49.228;11.102;2023-02-28T03:02:05;6.55;;;4.82;;
31382;SDS011;18014;49.228;11.102;2023-02-28T03:04:12;8.35;;;5.10;;
31382;SDS011;18014;49.228;11.102;2023-02-28T03:06:16;6.78;;;4.38;;
31382;SDS011;18014;49.228;11.102;2023-02-28T03:08:17;10.05;;;5.35;;
31382;SDS011;18014;49.228;11.102;2023-02-28T03:12:40;9.25;;;5.10;;
31382;SDS011;18014;49.228;11.102;2023-02-28T03:19:34;9.52;;;5.50;;
31382;SDS011;18014;49.228;11.102;2023-02-28T03:21:55;8.18;;;4.97;;
31382;SDS011;18014;49.228;11.102;2023-02-28T03:26:26;9.23;;;5.20;;
31382;SDS011;18014;49.228;11.102;2023-02-28T03:28:31;7.15;;;4.90;;
31382;SDS011;18014;49.228;11.102;2023-02-28T03:35:20;8.07;;;4.88;;
31382;SDS011;18014;49.228;11.102;2023-02-28T03:37:33;9.35;;;4.93;;
31382;SDS011;18014;49.228;11.102;2023-02-28T03:39:38;9.27;;;5.20;;
31382;SDS011;18014;49.228;11.102;2023-02-28T03:41:45;8.45;;;5.18;;
31382;SDS011;18014;49.228;11.102;2023-02-28T03:43:53;7.90;;;5.65;;
31382;SDS011;18014;49.228;11.102;2023-02-28T03:46:06;9.95;;;6.10;;
31382;SDS011;18014;49.228;11.102;2023-02-28T03:48:19;10.82;;;6.07;;
31382;SDS011;18014;49.228;11.102;2023-02-28T03:50:40;8.87;;;5.67;;
31382;SDS011;18014;49.228;11.102;2023-02-28T03:52:47;7.97;;;5.28;;
31382;SDS011;18014;49.228;11.102;2023-02-28T03:55:02;10.80;;;5.72;;
31382;SDS011;18014;49.228;11.102;2023-02-28T03:57:13;8.23;;;5.28;;
31382;SDS011;18014;49.228;11.102;2023-02-28T03:59:42;10.80;;;5.78;;
31382;SDS011;18014;49.228;11.102;2023-02-28T04:01:49;9.50;;;5.90;;
31382;SDS011;18014;49.228;11.102;2023-02-28T04:03:51;10.63;;;5.68;;
31382;SDS011;18014;49.228;11.102;2023-02-28T04:05:53;9.88;;;6.25;;
31382;SDS011;18014;49.228;11.102;2023-02-28T04:08:03;9.80;;;5.68;;
31382;SDS011;18014;49.228;11.102;2023-02-28T04:10:05;8.27;;;5.68;;
31382;SDS011;18014;49.228;11.102;2023-02-28T04:12:07;8.07;;;5.65;;
31382;SDS011;18014;49.228;11.102;2023-02-28T04:14:09;10.18;;;6.20;;
31382;SDS011;18014;49.228;11.102;2023-02-28T04:16:11;9.10;;;6.38;;
31382;SDS011;18014;49.228;11.102;2023-02-28T04:18:12;9.40;;;5.68;;
31382;SDS011;18014;49.228;11.102;2023-02-28T04:20:13;10.38;;;6.40;;
31382;SDS011;18014;49.228;11.102;2023-02-28T04:22:15;11.55;;;6.78;;
31382;SDS011;18014;49.228;11.102;2023-02-28T04:26:20;7.43;;;5.35;;
31382;SDS011;18014;49.228;11.102;2023-02-28T04:28:21;10.32;;;6.28;;
31382;SDS011;18014;49.228;11.102;2023-02-28T04:30:22;8.82;;;5.43;;
31382;SDS011;18014;49.228;11.102;2023-02-28T04:32:23;9.45;;;6.30;;
31382;SDS011;18014;49.228;11.102;2023-02-28T04:34:27;9.57;;;6.07;;
31382;SDS011;18014;49.228;11.102;2023-02-28T04:36:30;9.90;;;6.18;;
31382;SDS011;18014;49.228;11.102;2023-02-28T04:38:35;9.80;;;6.38;;
31382;SDS011;18014;49.228;11.102;2023-02-28T04:40:37;12.57;;;6.75;;
31382;SDS011;18014;49.228;11.102;2023-02-28T04:42:38;10.75;;;6.60;;
31382;SDS011;18014;49.228;11.102;2023-02-28T04:44:39;10.25;;;6.78;;
31382;SDS011;18014;49.228;11.102;2023-02-28T04:46:40;10.43;;;6.65;;
31382;SDS011;18014;49.228;11.102;2023-02-28T04:48:41;9.55;;;6.80;;
31382;SDS011;18014;49.228;11.102;2023-02-28T04:50:44;9.90;;;6.78;;
31382;SDS011;18014;49.228;11.102;2023-02-28T04:52:45;9.13;;;6.13;;
31382;SDS011;18014;49.228;11.102;2023-02-28T04:54:46;11.38;;;6.40;;
31382;SDS011;18014;49.228;11.102;2023-02-28T04:56:47;10.15;;;6.57;;
31382;SDS011;18014;49.228;11.102;2023-02-28T04:58:49;11.52;;;7.00;;
31382;SDS011;18014;49.228;11.102;2023-02-28T05:00:52;11.90;;;6.78;;
31382;SDS011;18014;49.228;11.102;2023-02-28T05:02:54;8.65;;;6.05;;
31382;SDS011;18014;49.228;11.102;2023-02-28T05:04:55;10.55;;;6.82;;
31382;SDS011;18014;49.228;11.102;2023-02-28T05:06:56;8.93;;;6.00;;
31382;SDS011;18014;49.228;11.102;2023-02-28T05:08:57;9.35;;;6.38;;
31382;SDS011;18014;49.228;11.102;2023-02-28T05:10:59;10.60;;;6.32;;
31382;SDS011;18014;49.228;11.102;2023-02-28T05:13:03;8.68;;;6.15;;
31382;SDS011;18014;49.228;11.102;2023-02-28T05:15:04;10.82;;;6.90;;
31382;SDS011;18014;49.228;11.102;2023-02-28T05:17:05;8.43;;;5.22;;
31382;SDS011;18014;49.228;11.102;2023-02-28T05:19:08;10.40;;;6.80;;
31382;SDS011;18014;49.228;11.102;2023-02-28T05:21:49;10.85;;;6.65;;
31382;SDS011;18014;49.228;11.102;2023-02-28T05:23:36;9.93;;;7.07;;
31382;SDS011;18014;49.228;11.102;2023-02-28T05:25:37;11.45;;;6.57;;
31382;SDS011;18014;49.228;11.102;2023-02-28T05:27:39;11.57;;;6.85;;
31382;SDS011;18014;49.228;11.102;2023-02-28T05:29:40;12.00;;;6.72;;
31382;SDS011;18014;49.228;11.102;2023-02-28T05:31:44;11.02;;;6.65;;
31382;SDS011;18014;49.228;11.102;2023-02-28T05:33:46;11.57;;;7.15;;
31382;SDS011;18014;49.228;11.102;2023-02-28T05:35:47;9.85;;;6.90;;
31382;SDS011;18014;49.228;11.102;2023-02-28T05:37:48;13.43;;;7.53;;
31382;SDS011;18014;49.228;11.102;2023-02-28T05:39:49;9.48;;;6.70;;
31382;SDS011;18014;49.228;11.102;2023-02-28T05:41:50;10.30;;;7.68;;
31382;SDS011;18014;49.228;11.102;2023-02-28T05:43:51;9.68;;;6.80;;
31382;SDS011;18014;49.228;11.102;2023-02-28T05:45:52;11.82;;;7.63;;
31382;SDS011;18014;49.228;11.102;2023-02-28T05:47:53;12.05;;;7.30;;
31382;SDS011;18014;49.228;11.102;2023-02-28T05:49:55;9.98;;;6.97;;
31382;SDS011;18014;49.228;11.102;2023-02-28T05:51:56;13.18;;;7.80;;
31382;SDS011;18014;49.228;11.102;2023-02-28T05:54:00;13.50;;;7.47;;
31382;SDS011;18014;49.228;11.102;2023-02-28T05:56:01;11.88;;;7.53;;
31382;SDS011;18014;49.228;11.102;2023-02-28T05:58:03;13.00;;;7.73;;
31382;SDS011;18014;49.228;11.102;2023-02-28T06:00:04;11.30;;;7.75;;
31382;SDS011;18014;49.228;11.102;2023-02-28T06:02:08;12.77;;;7.35;;
31382;SDS011;18014;49.228;11.102;2023-02-28T06:04:16;10.88;;;7.35;;
31382;SDS011;18014;49.228;11.102;2023-02-28T06:06:18;15.50;;;7.60;;
31382;SDS011;18014;49.228;11.102;2023-02-28T06:08:20;11.20;;;7.18;;
31382;SDS011;18014;49.228;11.102;2023-02-28T06:10:21;14.07;;;8.00;;
31382;SDS011;18014;49.228;11.102;2023-02-28T06:12:22;12.80;;;7.95;;
31382;SDS011;18014;49.228;11.102;2023-02-28T06:14:23;14.73;;;8.40;;
31382;SDS011;18014;49.228;11.102;2023-02-28T06:16:24;10.70;;;8.07;;
31382;SDS011;18014;49.228;11.102;2023-02-28T06:18:26;11.18;;;7.47;;
31382;SDS011;18014;49.228;11.102;2023-02-28T06:20:27;11.95;;;7.80;;
31382;SDS011;18014;49.228;11.102;2023-02-28T06:22:29;13.35;;;8.85;;
31382;SDS011;18014;49.228;11.102;2023-02-28T06:24:31;11.35;;;8.07;;
31382;SDS011;18014;49.228;11.102;2023-02-28T06:26:32;12.68;;;8.70;;
31382;SDS011;18014;49.228;11.102;2023-02-28T06:28:33;12.75;;;8.07;;
31382;SDS011;18014;49.228;11.102;2023-02-28T06:30:34;11.70;;;8.05;;
31382;SDS011;18014;49.228;11.102;2023-02-28T06:32:36;14.00;;;9.15;;
31382;SDS011;18014;49.228;11.102;2023-02-28T06:34:38;10.98;;;7.90;;
31382;SDS011;18014;49.228;11.102;2023-02-28T06:36:39;12.23;;;8.52;;
31382;SDS011;18014;49.228;11.102;2023-02-28T06:38:41;11.93;;;8.38;;
31382;SDS011;18014;49.228;11.102;2023-02-28T06:40:43;21.92;;;8.63;;
31382;SDS011;18014;49.228;11.102;2023-02-28T06:42:44;13.55;;;8.52;;
31382;SDS011;18014;49.228;11.102;2023-02-28T06:44:46;13.23;;;9.02;;
31382;SDS011;18014;49.228;11.102;2023-02-28T06:46:48;10.80;;;8.18;;
31382;SDS011;18014;49.228;11.102;2023-02-28T06:48:49;12.70;;;8.85;;
31382;SDS011;18014;49.228;11.102;2023-02-28T06:50:50;15.02;;;9.82;;
31382;SDS011;18014;49.228;11.102;2023-02-28T06:52:51;14.63;;;9.02;;
31382;SDS011;18014;49.228;11.102;2023-02-28T06:54:54;14.70;;;10.30;;
31382;SDS011;18014;49.228;11.102;2023-02-28T06:56:59;17.10;;;9.80;;
31382;SDS011;18014;49.228;11.102;2023-02-28T06:59:00;16.58;;;10.18;;
31382;SDS011;18014;49.228;11.102;2023-02-28T07:01:01;13.10;;;9.07;;
31382;SDS011;18014;49.228;11.102;2023-02-28T07:03:03;15.80;;;9.60;;
31382;SDS011;18014;49.228;11.102;2023-02-28T07:05:05;16.52;;;9.02;;
31382;SDS011;18014;49.228;11.102;2023-02-28T07:07:06;15.77;;;9.68;;
31382;SDS011;18014;49.228;11.102;2023-02-28T07:09:07;13.98;;;9.90;;
31382;SDS011;18014;49.228;11.102;2023-02-28T07:11:08;13.70;;;9.60;;
31382;SDS011;18014;49.228;11.102;2023-02-28T07:13:09;13.77;;;9.40;;
31382;SDS011;18014;49.228;11.102;2023-02-28T07:15:11;13.73;;;9.55;;
31382;SDS011;18014;49.228;11.102;2023-02-28T07:17:12;13.00;;;9.50;;
31382;SDS011;18014;49.228;11.102;2023-02-28T07:19:13;12.05;;;9.07;;
31382;SDS011;18014;49.228;11.102;2023-02-28T07:21:14;11.73;;;9.07;;
31382;SDS011;18014;49.228;11.102;2023-02-28T07:23:16;13.57;;;9.32;;
31382;SDS011;18014;49.228;11.102;2023-02-28T07:25:17;15.23;;;8.77;;
31382;SDS011;18014;49.228;11.102;2023-02-28T07:27:18;14.27;;;8.88;;
31382;SDS011;18014;49.228;11.102;2023-02-28T07:29:25;19.15;;;10.32;;
31382;SDS011;18014;49.228;11.102;2023-02-28T07:31:26;27.42;;;17.15;;
31382;SDS011;18014;49.228;11.102;2023-02-28T07:33:27;14.27;;;9.43;;
31382;SDS011;18014;49.228;11.102;2023-02-28T07:35:28;15.00;;;9.55;;
31382;SDS011;18014;49.228;11.102;2023-02-28T07:37:30;12.35;;;9.23;;
31382;SDS011;18014;49.228;11.102;2023-02-28T07:39:36;15.85;;;9.32;;
31382;SDS011;18014;49.228;11.102;2023-02-28T07:41:37;13.75;;;8.65;;
31382;SDS011;18014;49.228;11.102;2023-02-28T07:43:43;14.60;;;9.02;;
31382;SDS011;18014;49.228;11.102;2023-02-28T07:45:44;11.77;;;8.15;;
31382;SDS011;18014;49.228;11.102;2023-02-28T07:47:45;12.23;;;8.48;;
31382;SDS011;18014;49.228;11.102;2023-02-28T07:49:46;13.45;;;8.57;;
31382;SDS011;18014;49.228;11.102;2023-02-28T07:51:47;11.23;;;8.35;;
31382;SDS011;18014;49.228;11.102;2023-02-28T07:53:48;12.50;;;8.77;;
31382;SDS011;18014;49.228;11.102;2023-02-28T07:55:49;12.00;;;8.38;;
31382;SDS011;18014;49.228;11.102;2023-02-28T07:57:50;14.00;;;8.77;;
31382;SDS011;18014;49.228;11.102;2023-02-28T07:59:51;13.45;;;9.13;;
31382;SDS011;18014;49.228;11.102;2023-02-28T08:01:52;13.40;;;9.10;;
31382;SDS011;18014;49.228;11.102;2023-02-28T08:03:53;11.80;;;8.35;;
31382;SDS011;18014;49.228;11.102;2023-02-28T08:05:54;10.80;;;8.48;;
31382;SDS011;18014;49.228;11.102;2023-02-28T08:07:56;13.10;;;9.25;;
31382;SDS011;18014;49.228;11.102;2023-02-28T08:09:57;11.27;;;8.65;;
31382;SDS011;18014;49.228;11.102;2023-02-28T08:11:58;13.38;;;8.88;;
31382;SDS011;18014;49.228;11.102;2023-02-28T08:13:59;12.43;;;9.10;;
31382;SDS011;18014;49.228;11.102;2023-02-28T08:16:01;21.08;;;10.05;;
31382;SDS011;18014;49.228;11.102;2023-02-28T08:18:02;15.00;;;9.30;;
31382;SDS011;18014;49.228;11.102;2023-02-28T08:20:04;13.73;;;9.50;;
31382;SDS011;18014;49.228;11.102;2023-02-28T08:22:05;13.80;;;9.40;;
31382;SDS011;18014;49.228;11.102;2023-02-28T08:24:06;13.07;;;9.07;;
31382;SDS011;18014;49.228;11.102;2023-02-28T08:26:07;14.00;;;9.82;;
31382;SDS011;18014;49.228;11.102;2023-02-28T08:28:09;12.88;;;9.38;;
31382;SDS011;18014;49.228;11.102;2023-02-28T08:30:10;16.48;;;9.45;;
31382;SDS011;18014;49.228;11.102;2023-02-28T08:32:12;13.10;;;9.02;;
31382;SDS011;18014;49.228;11.102;2023-02-28T08:34:14;12.95;;;9.13;;
31382;SDS011;18014;49.228;11.102;2023-02-28T08:36:16;13.63;;;9.48;;
31382;SDS011;18014;49.228;11.102;2023-02-28T08:38:17;12.30;;;9.02;;
31382;SDS011;18014;49.228;11.102;2023-02-28T08:40:18;11.02;;;8.43;;
31382;SDS011;18014;49.228;11.102;2023-02-28T08:42:19;12.93;;;9.43;;
31382;SDS011;18014;49.228;11.102;2023-02-28T08:44:20;11.23;;;9.18;;
31382;SDS011;18014;49.228;11.102;2023-02-28T08:46:22;13.23;;;9.05;;
31382;SDS011;18014;49.228;11.102;2023-02-28T08:48:24;11.63;;;8.77;;
31382;SDS011;18014;49.228;11.102;2023-02-28T08:50:28;13.48;;;9.55;;
31382;SDS011;18014;49.228;11.102;2023-02-28T08:52:29;11.32;;;8.75;;
31382;SDS011;18014;49.228;11.102;2023-02-28T08:54:30;10.98;;;9.60;;
31382;SDS011;18014;49.228;11.102;2023-02-28T08:56:33;10.82;;;8.95;;
31382;SDS011;18014;49.228;11.102;2023-02-28T08:58:34;10.40;;;8.98;;
31382;SDS011;18014;49.228;11.102;2023-02-28T09:00:35;12.07;;;10.13;;
31382;SDS011;18014;49.228;11.102;2023-02-28T09:02:36;47.22;;;22.55;;
31382;SDS011;18014;49.228;11.102;2023-02-28T09:04:38;12.38;;;9.65;;
31382;SDS011;18014;49.228;11.102;2023-02-28T09:06:39;10.50;;;9.40;;
31382;SDS011;18014;49.228;11.102;2023-02-28T09:08:40;10.25;;;9.18;;
31382;SDS011;18014;49.228;11.102;2023-02-28T09:10:41;10.07;;;8.35;;
31382;SDS011;18014;49.228;11.102;2023-02-28T09:12:42;12.68;;;9.30;;
31382;SDS011;18014;49.228;11.102;2023-02-28T09:14:46;11.43;;;8.32;;
31382;SDS011;18014;49.228;11.102;2023-02-28T09:16:47;10.23;;;8.43;;
31382;SDS011;18014;49.228;11.102;2023-02-28T09:18:48;10.52;;;9.00;;
31382;SDS011;18014;49.228;11.102;2023-02-28T09:20:49;10.63;;;9.52;;
31382;SDS011;18014;49.228;11.102;2023-02-28T09:22:50;11.25;;;9.75;;
31382;SDS011;18014;49.228;11.102;2023-02-28T09:24:51;12.38;;;9.15;;
31382;SDS011;18014;49.228;11.102;2023-02-28T09:26:52;10.68;;;8.18;;
31382;SDS011;18014;49.228;11.102;2023-02-28T09:28:53;10.38;;;8.57;;
31382;SDS011;18014;49.228;11.102;2023-02-28T09:30:55;12.30;;;8.65;;
31382;SDS011;18014;49.228;11.102;2023-02-28T09:32:58;9.88;;;8.70;;
31382;SDS011;18014;49.228;11.102;2023-02-28T09:34:59;9.77;;;8.77;;
31382;SDS011;18014;49.228;11.102;2023-02-28T09:37:00;12.55;;;9.30;;
31382;SDS011;18014;49.228;11.102;2023-02-28T09:39:01;10.68;;;8.45;;
31382;SDS011;18014;49.228;11.102;2023-02-28T09:41:04;9.38;;;8.38;;
31382;SDS011;18014;49.228;11.102;2023-02-28T09:43:15;12.20;;;9.18;;
31382;SDS011;18014;49.228;11.102;2023-02-28T09:45:25;10.32;;;8.75;;
31382;SDS011;18014;49.228;11.102;2023-02-28T09:47:34;11.23;;;9.00;;
31382;SDS011;18014;49.228;11.102;2023-02-28T09:49:40;11.50;;;9.00;;
31382;SDS011;18014;49.228;11.102;2023-02-28T09:51:56;10.15;;;8.73;;
31382;SDS011;18014;49.228;11.102;2023-02-28T09:54:02;12.32;;;8.93;;
31382;SDS011;18014;49.228;11.102;2023-02-28T09:56:04;10.13;;;8.10;;
31382;SDS011;18014;49.228;11.102;2023-02-28T09:58:15;10.10;;;8.88;;
31382;SDS011;18014;49.228;11.102;2023-02-28T10:00:36;10.50;;;9.35;;
31382;SDS011;18014;49.228;11.102;2023-02-28T10:05:19;10.43;;;7.90;;
31382;SDS011;18014;49.228;11.102;2023-02-28T10:09:43;9.85;;;8.20;;
31382;SDS011;18014;49.228;11.102;2023-02-28T10:11:47;11.02;;;8.90;;
31382;SDS011;18014;49.228;11.102;2023-02-28T10:16:11;10.30;;;8.05;;
31382;SDS011;18014;49.228;11.102;2023-02-28T10:18:18;10.80;;;9.30;;
31382;SDS011;18014;49.228;11.102;2023-02-28T10:20:24;9.50;;;7.85;;
31382;SDS011;18014;49.228;11.102;2023-02-28T10:22:36;12.50;;;9.13;;
31382;SDS011;18014;49.228;11.102;2023-02-28T10:24:40;11.52;;;8.95;;
31382;SDS011;18014;49.228;11.102;2023-02-28T10:26:47;11.57;;;8.57;;
31382;SDS011;18014;49.228;11.102;2023-02-28T10:28:48;13.67;;;9.07;;
31382;SDS011;18014;49.228;11.102;2023-02-28T10:30:51;10.25;;;8.57;;
31382;SDS011;18014;49.228;11.102;2023-02-28T10:32:53;11.15;;;8.50;;
31382;SDS011;18014;49.228;11.102;2023-02-28T10:35:17;11.65;;;8.60;;
31382;SDS011;18014;49.228;11.102;2023-02-28T10:37:23;9.82;;;8.15;;
31382;SDS011;18014;49.228;11.102;2023-02-28T10:39:34;10.43;;;8.35;;
31382;SDS011;18014;49.228;11.102;2023-02-28T10:41:42;12.25;;;8.82;;
31382;SDS011;18014;49.228;11.102;2023-02-28T10:43:44;10.32;;;8.50;;
31382;SDS011;18014;49.228;11.102;2023-02-28T10:48:03;12.77;;;9.20;;
31382;SDS011;18014;49.228;11.102;2023-02-28T10:50:04;10.85;;;8.88;;
31382;SDS011;18014;49.228;11.102;2023-02-28T10:52:07;9.95;;;8.10;;
31382;SDS011;18014;49.228;11.102;2023-02-28T10:54:52;10.93;;;8.23;;
31382;SDS011;18014;49.228;11.102;2023-02-28T10:56:37;10.80;;;8.27;;
31382;SDS011;18014;49.228;11.102;2023-02-28T11:00:53;8.65;;;7.75;;
31382;SDS011;18014;49.228;11.102;2023-02-28T11:02:54;10.13;;;8.13;;
31382;SDS011;18014;49.228;11.102;2023-02-28T11:04:55;10.15;;;8.15;;
31382;SDS011;18014;49.228;11.102;2023-02-28T11:06:57;11.40;;;8.45;;
31382;SDS011;18014;49.228;11.102;2023-02-28T11:09:15;9.23;;;8.32;;
31382;SDS011;18014;49.228;11.102;2023-02-28T11:11:28;9.38;;;7.60;;
31382;SDS011;18014;49.228;11.102;2023-02-28T11:13:32;9.63;;;8.63;;
31382;SDS011;18014;49.228;11.102;2023-02-28T11:15:35;9.35;;;8.27;;
31382;SDS011;18014;49.228;11.102;2023-02-28T11:17:36;9.60;;;8.60;;
31382;SDS011;18014;49.228;11.102;2023-02-28T11:19:44;9.80;;;8.32;;
31382;SDS011;18014;49.228;11.102;2023-02-28T11:21:51;9.18;;;7.90;;
31382;SDS011;18014;49.228;11.102;2023-02-28T11:24:00;10.38;;;7.78;;
31382;SDS011;18014;49.228;11.102;2023-02-28T11:26:14;14.38;;;10.73;;
31382;SDS011;18014;49.228;11.102;2023-02-28T11:28:32;11.48;;;8.77;;
31382;SDS011;18014;49.228;11.102;2023-02-28T11:30:36;12.25;;;8.88;;
31382;SDS011;18014;49.228;11.102;2023-02-28T11:32:39;10.15;;;9.10;;
31382;SDS011;18014;49.228;11.102;2023-02-28T11:37:10;11.02;;;9.00;;
31382;SDS011;18014;49.228;11.102;2023-02-28T11:39:14;10.45;;;9.23;;
31382;SDS011;18014;49.228;11.102;2023-02-28T11:44:00;9.95;;;8.70;;
31382;SDS011;18014;49.228;11.102;2023-02-28T11:48:30;8.82;;;8.02;;
31382;SDS011;18014;49.228;11.102;2023-02-28T11:50:54;9.13;;;8.23;;
31382;SDS011;18014;49.228;11.102;2023-02-28T11:53:01;8.32;;;7.55;;
31382;SDS011;18014;49.228;11.102;2023-02-28T11:55:13;8.38;;;7.55;;
31382;SDS011;18014;49.228;11.102;2023-02-28T11:57:25;7.85;;;7.15;;
31382;SDS011;18014;49.228;11.102;2023-02-28T11:59:55;8.75;;;7.85;;
31382;SDS011;18014;49.228;11.102;2023-02-28T12:18:42;11.77;;;10.07;;
31382;SDS011;18014;49.228;11.102;2023-02-28T12:23:21;10.95;;;9.82;;
31382;SDS011;18014;49.228;11.102;2023-02-28T12:27:48;9.27;;;8.38;;
31382;SDS011;18014;49.228;11.102;2023-02-28T12:34:12;9.95;;;8.95;;
31382;SDS011;18014;49.228;11.102;2023-02-28T12:36:18;9.27;;;8.30;;
31382;SDS011;18014;49.228;11.102;2023-02-28T12:38:22;9.48;;;8.18;;
31382;SDS011;18014;49.228;11.102;2023-02-28T12:40:28;8.48;;;7.68;;
31382;SDS011;18014;49.228;11.102;2023-02-28T12:42:45;9.35;;;7.50;;
31382;SDS011;18014;49.228;11.102;2023-02-28T12:44:50;9.68;;;8.48;;
31382;SDS011;18014;49.228;11.102;2023-02-28T12:46:56;9.52;;;8.63;;
31382;SDS011;18014;49.228;11.102;2023-02-28T12:49:08;9.45;;;8.55;;
31382;SDS011;18014;49.228;11.102;2023-02-28T12:51:13;10.23;;;9.23;;
31382;SDS011;18014;49.228;11.102;2023-02-28T12:55:49;9.63;;;8.73;;
31382;SDS011;18014;49.228;11.102;2023-02-28T13:00:36;9.73;;;8.73;;
31382;SDS011;18014;49.228;11.102;2023-02-28T13:09:27;10.48;;;9.48;;
31382;SDS011;18014;49.228;11.102;2023-02-28T13:11:33;9.25;;;8.32;;
31382;SDS011;18014;49.228;11.102;2023-02-28T13:13:43;10.77;;;9.65;;
31382;SDS011;18014;49.228;11.102;2023-02-28T13:18:01;9.38;;;8.50;;
31382;SDS011;18014;49.228;11.102;2023-02-28T13:20:02;10.50;;;9.48;;
31382;SDS011;18014;49.228;11.102;2023-02-28T13:22:03;13.93;;;8.98;;
31382;SDS011;18014;49.228;11.102;2023-02-28T13:24:07;12.17;;;10.10;;
31382;SDS011;18014;49.228;11.102;2023-02-28T13:26:09;9.80;;;8.80;;
31382;SDS011;18014;49.228;11.102;2023-02-28T13:28:13;10.15;;;9.15;;
31382;SDS011;18014;49.228;11.102;2023-02-28T13:36:06;10.95;;;8.57;;
31382;SDS011;18014;49.228;11.102;2023-02-28T13:38:12;12.55;;;9.55;;
31382;SDS011;18014;49.228;11.102;2023-02-28T13:40:27;10.93;;;9.55;;
31382;SDS011;18014;49.228;11.102;2023-02-28T13:42:37;10.48;;;9.27;;
31382;SDS011;18014;49.228;11.102;2023-02-28T13:47:19;10.18;;;8.40;;
31382;SDS011;18014;49.228;11.102;2023-02-28T13:53:53;10.13;;;9.00;;
31382;SDS011;18014;49.228;11.102;2023-02-28T13:56:07;10.38;;;9.38;;
31382;SDS011;18014;49.228;11.102;2023-02-28T13:58:52;13.80;;;9.50;;
31382;SDS011;18014;49.228;11.102;2023-02-28T14:01:22;12.15;;;9.20;;
31382;SDS011;18014;49.228;11.102;2023-02-28T14:08:26;11.75;;;8.98;;
31382;SDS011;18014;49.228;11.102;2023-02-28T14:10:30;11.32;;;8.88;;